Terminal Aerodrome Forecast
Issued by NWS

Home | Current Version | Previous Version | Text Only | Print | Product List | Glossary On
Versions: 1 2 3 4 5 6 7 8 9 10 11 12 13 14 15 16 17 18
000
FTUS45 KPSR 011722
TAFBLH
TAF
KBLH 011722Z 0118/0218 VRB05KT P6SM SCT120 BKN200
     FM012000 08007KT P6SM VCTS FEW080CB SCT120 BKN200
     FM020200 34008KT P6SM FEW140 SCT250=

USA.gov is the U.S. government's official web portal to all federal, state and local government web resources and services.